sensor_id;sensor_type;location;lat;lon;timestamp;P1;durP1;ratioP1;P2;durP2;ratioP2
24153;SDS011;12312;53.362;-1.518;2024-02-26T00:02:43;10.70;;;4.82;;
24153;SDS011;12312;53.362;-1.518;2024-02-26T00:05:27;12.52;;;4.80;;
24153;SDS011;12312;53.362;-1.518;2024-02-26T00:08:11;8.15;;;3.92;;
24153;SDS011;12312;53.362;-1.518;2024-02-26T00:10:55;11.88;;;4.70;;
24153;SDS011;12312;53.362;-1.518;2024-02-26T00:13:39;7.65;;;4.88;;
24153;SDS011;12312;53.362;-1.518;2024-02-26T00:16:22;12.55;;;5.43;;
24153;SDS011;12312;53.362;-1.518;2024-02-26T00:19:07;12.82;;;4.95;;
24153;SDS011;12312;53.362;-1.518;2024-02-26T00:21:51;14.25;;;5.35;;
24153;SDS011;12312;53.362;-1.518;2024-02-26T00:24:39;10.95;;;4.13;;
24153;SDS011;12312;53.362;-1.518;2024-02-26T00:30:07;8.93;;;4.28;;
24153;SDS011;12312;53.362;-1.518;2024-02-26T00:32:52;9.75;;;5.18;;
24153;SDS011;12312;53.362;-1.518;2024-02-26T00:35:36;9.45;;;4.32;;
24153;SDS011;12312;53.362;-1.518;2024-02-26T00:38:19;14.77;;;4.28;;
24153;SDS011;12312;53.362;-1.518;2024-02-26T00:41:04;13.63;;;4.43;;
24153;SDS011;12312;53.362;-1.518;2024-02-26T00:43:48;10.02;;;3.78;;
24153;SDS011;12312;53.362;-1.518;2024-02-26T00:46:32;8.68;;;3.83;;
24153;SDS011;12312;53.362;-1.518;2024-02-26T00:49:16;9.57;;;5.03;;
24153;SDS011;12312;53.362;-1.518;2024-02-26T00:52:01;10.25;;;3.58;;
24153;SDS011;12312;53.362;-1.518;2024-02-26T00:54:45;7.68;;;4.40;;
24153;SDS011;12312;53.362;-1.518;2024-02-26T00:57:28;7.53;;;4.40;;
24153;SDS011;12312;53.362;-1.518;2024-02-26T01:00:12;7.20;;;3.85;;
24153;SDS011;12312;53.362;-1.518;2024-02-26T01:02:57;7.95;;;3.17;;
24153;SDS011;12312;53.362;-1.518;2024-02-26T01:05:43;9.35;;;3.53;;
24153;SDS011;12312;53.362;-1.518;2024-02-26T01:08:27;8.85;;;4.07;;
24153;SDS011;12312;53.362;-1.518;2024-02-26T01:11:11;6.10;;;4.07;;
24153;SDS011;12312;53.362;-1.518;2024-02-26T01:13:55;16.52;;;3.92;;
24153;SDS011;12312;53.362;-1.518;2024-02-26T01:16:40;7.30;;;3.10;;
24153;SDS011;12312;53.362;-1.518;2024-02-26T01:19:24;10.57;;;3.50;;
24153;SDS011;12312;53.362;-1.518;2024-02-26T01:22:07;10.38;;;2.78;;
24153;SDS011;12312;53.362;-1.518;2024-02-26T01:24:51;6.10;;;3.28;;
24153;SDS011;12312;53.362;-1.518;2024-02-26T01:27:38;8.90;;;3.17;;
24153;SDS011;12312;53.362;-1.518;2024-02-26T01:30:24;5.18;;;2.00;;
24153;SDS011;12312;53.362;-1.518;2024-02-26T01:33:08;5.13;;;2.35;;
24153;SDS011;12312;53.362;-1.518;2024-02-26T01:35:52;5.85;;;3.03;;
24153;SDS011;12312;53.362;-1.518;2024-02-26T01:38:36;13.15;;;3.88;;
24153;SDS011;12312;53.362;-1.518;2024-02-26T01:41:20;6.30;;;3.10;;
24153;SDS011;12312;53.362;-1.518;2024-02-26T01:44:05;5.88;;;2.90;;
24153;SDS011;12312;53.362;-1.518;2024-02-26T01:46:49;7.68;;;3.38;;
24153;SDS011;12312;53.362;-1.518;2024-02-26T01:49:33;8.13;;;2.65;;
24153;SDS011;12312;53.362;-1.518;2024-02-26T01:52:19;7.07;;;3.55;;
24153;SDS011;12312;53.362;-1.518;2024-02-26T01:55:04;5.10;;;2.65;;
24153;SDS011;12312;53.362;-1.518;2024-02-26T01:57:49;4.63;;;2.15;;
24153;SDS011;12312;53.362;-1.518;2024-02-26T02:00:35;8.63;;;2.75;;
24153;SDS011;12312;53.362;-1.518;2024-02-26T02:03:20;7.80;;;3.28;;
24153;SDS011;12312;53.362;-1.518;2024-02-26T02:06:04;8.55;;;2.85;;
24153;SDS011;12312;53.362;-1.518;2024-02-26T02:08:48;12.60;;;2.47;;
24153;SDS011;12312;53.362;-1.518;2024-02-26T02:11:33;9.77;;;2.33;;
24153;SDS011;12312;53.362;-1.518;2024-02-26T02:14:18;5.28;;;1.88;;
24153;SDS011;12312;53.362;-1.518;2024-02-26T02:17:02;4.60;;;2.00;;
24153;SDS011;12312;53.362;-1.518;2024-02-26T02:19:46;12.07;;;2.50;;
24153;SDS011;12312;53.362;-1.518;2024-02-26T02:22:30;3.00;;;1.70;;
24153;SDS011;12312;53.362;-1.518;2024-02-26T02:25:15;8.50;;;2.65;;
24153;SDS011;12312;53.362;-1.518;2024-02-26T02:27:59;3.72;;;1.92;;
24153;SDS011;12312;53.362;-1.518;2024-02-26T02:30:44;3.47;;;2.13;;
24153;SDS011;12312;53.362;-1.518;2024-02-26T02:33:28;3.28;;;1.63;;
24153;SDS011;12312;53.362;-1.518;2024-02-26T02:36:13;3.70;;;1.98;;
24153;SDS011;12312;53.362;-1.518;2024-02-26T02:38:57;3.05;;;2.22;;
24153;SDS011;12312;53.362;-1.518;2024-02-26T02:41:41;8.95;;;1.77;;
24153;SDS011;12312;53.362;-1.518;2024-02-26T02:44:25;7.78;;;2.75;;
24153;SDS011;12312;53.362;-1.518;2024-02-26T02:47:09;12.95;;;2.42;;
24153;SDS011;12312;53.362;-1.518;2024-02-26T02:49:53;6.20;;;2.28;;
24153;SDS011;12312;53.362;-1.518;2024-02-26T02:52:36;3.35;;;1.98;;
24153;SDS011;12312;53.362;-1.518;2024-02-26T02:55:20;4.75;;;1.85;;
24153;SDS011;12312;53.362;-1.518;2024-02-26T02:58:04;3.45;;;1.38;;
24153;SDS011;12312;53.362;-1.518;2024-02-26T03:00:48;9.32;;;1.75;;
24153;SDS011;12312;53.362;-1.518;2024-02-26T03:03:32;3.80;;;1.77;;
24153;SDS011;12312;53.362;-1.518;2024-02-26T03:06:16;4.97;;;2.13;;
24153;SDS011;12312;53.362;-1.518;2024-02-26T03:09:01;9.20;;;2.70;;
24153;SDS011;12312;53.362;-1.518;2024-02-26T03:11:45;4.40;;;1.70;;
24153;SDS011;12312;53.362;-1.518;2024-02-26T03:14:29;10.75;;;2.60;;
24153;SDS011;12312;53.362;-1.518;2024-02-26T03:17:13;3.58;;;1.40;;
24153;SDS011;12312;53.362;-1.518;2024-02-26T03:19:57;4.10;;;1.90;;
24153;SDS011;12312;53.362;-1.518;2024-02-26T03:22:41;5.30;;;2.05;;
24153;SDS011;12312;53.362;-1.518;2024-02-26T03:25:25;6.97;;;1.65;;
24153;SDS011;12312;53.362;-1.518;2024-02-26T03:28:09;5.38;;;2.10;;
24153;SDS011;12312;53.362;-1.518;2024-02-26T03:30:53;4.93;;;2.20;;
24153;SDS011;12312;53.362;-1.518;2024-02-26T03:33:37;4.03;;;1.88;;
24153;SDS011;12312;53.362;-1.518;2024-02-26T03:36:21;2.25;;;1.33;;
24153;SDS011;12312;53.362;-1.518;2024-02-26T03:39:05;6.03;;;1.88;;
24153;SDS011;12312;53.362;-1.518;2024-02-26T03:41:51;4.35;;;2.05;;
24153;SDS011;12312;53.362;-1.518;2024-02-26T03:44:35;2.97;;;1.60;;
24153;SDS011;12312;53.362;-1.518;2024-02-26T03:47:19;9.55;;;1.48;;
24153;SDS011;12312;53.362;-1.518;2024-02-26T03:50:03;2.20;;;1.30;;
24153;SDS011;12312;53.362;-1.518;2024-02-26T03:52:48;6.60;;;1.77;;
24153;SDS011;12312;53.362;-1.518;2024-02-26T03:55:32;5.10;;;1.08;;
24153;SDS011;12312;53.362;-1.518;2024-02-26T03:58:16;12.95;;;2.13;;
24153;SDS011;12312;53.362;-1.518;2024-02-26T04:01:00;2.60;;;1.55;;
24153;SDS011;12312;53.362;-1.518;2024-02-26T04:03:44;4.38;;;1.55;;
24153;SDS011;12312;53.362;-1.518;2024-02-26T04:06:28;2.08;;;1.55;;
24153;SDS011;12312;53.362;-1.518;2024-02-26T04:09:15;6.28;;;1.58;;
24153;SDS011;12312;53.362;-1.518;2024-02-26T04:11:59;5.47;;;1.88;;
24153;SDS011;12312;53.362;-1.518;2024-02-26T04:14:43;40.25;;;5.00;;
24153;SDS011;12312;53.362;-1.518;2024-02-26T04:17:28;5.03;;;1.63;;
24153;SDS011;12312;53.362;-1.518;2024-02-26T04:20:15;7.25;;;1.60;;
24153;SDS011;12312;53.362;-1.518;2024-02-26T04:23:00;4.93;;;1.52;;
24153;SDS011;12312;53.362;-1.518;2024-02-26T04:25:44;4.32;;;2.33;;
24153;SDS011;12312;53.362;-1.518;2024-02-26T04:28:28;4.53;;;1.98;;
24153;SDS011;12312;53.362;-1.518;2024-02-26T04:31:13;3.10;;;1.48;;
24153;SDS011;12312;53.362;-1.518;2024-02-26T04:33:57;3.03;;;1.65;;
24153;SDS011;12312;53.362;-1.518;2024-02-26T04:36:41;1.92;;;1.33;;
24153;SDS011;12312;53.362;-1.518;2024-02-26T04:39:26;18.57;;;3.23;;
24153;SDS011;12312;53.362;-1.518;2024-02-26T04:42:10;3.72;;;1.95;;
24153;SDS011;12312;53.362;-1.518;2024-02-26T04:44:54;1.80;;;1.70;;
24153;SDS011;12312;53.362;-1.518;2024-02-26T04:47:38;1.58;;;0.98;;
24153;SDS011;12312;53.362;-1.518;2024-02-26T04:50:23;6.32;;;1.70;;
24153;SDS011;12312;53.362;-1.518;2024-02-26T04:53:07;6.05;;;2.22;;
24153;SDS011;12312;53.362;-1.518;2024-02-26T04:55:52;5.45;;;2.13;;
24153;SDS011;12312;53.362;-1.518;2024-02-26T04:58:36;11.18;;;2.25;;
24153;SDS011;12312;53.362;-1.518;2024-02-26T05:01:20;2.60;;;1.75;;
24153;SDS011;12312;53.362;-1.518;2024-02-26T05:04:04;3.63;;;1.73;;
24153;SDS011;12312;53.362;-1.518;2024-02-26T05:06:48;4.05;;;1.67;;
24153;SDS011;12312;53.362;-1.518;2024-02-26T05:09:32;8.80;;;2.22;;
24153;SDS011;12312;53.362;-1.518;2024-02-26T05:12:16;2.40;;;1.40;;
24153;SDS011;12312;53.362;-1.518;2024-02-26T05:15:00;11.05;;;2.05;;
24153;SDS011;12312;53.362;-1.518;2024-02-26T05:17:44;7.10;;;2.67;;
24153;SDS011;12312;53.362;-1.518;2024-02-26T05:20:29;3.45;;;2.03;;
24153;SDS011;12312;53.362;-1.518;2024-02-26T05:23:13;8.35;;;2.60;;
24153;SDS011;12312;53.362;-1.518;2024-02-26T05:25:57;2.25;;;1.25;;
24153;SDS011;12312;53.362;-1.518;2024-02-26T05:28:41;5.18;;;2.40;;
24153;SDS011;12312;53.362;-1.518;2024-02-26T05:31:26;3.60;;;1.48;;
24153;SDS011;12312;53.362;-1.518;2024-02-26T05:34:10;3.25;;;2.28;;
24153;SDS011;12312;53.362;-1.518;2024-02-26T05:36:54;3.28;;;1.88;;
24153;SDS011;12312;53.362;-1.518;2024-02-26T05:39:38;5.05;;;1.73;;
24153;SDS011;12312;53.362;-1.518;2024-02-26T05:42:23;2.83;;;1.85;;
24153;SDS011;12312;53.362;-1.518;2024-02-26T05:45:07;5.00;;;2.10;;
24153;SDS011;12312;53.362;-1.518;2024-02-26T05:47:51;2.88;;;1.98;;
24153;SDS011;12312;53.362;-1.518;2024-02-26T05:50:35;7.47;;;2.70;;
24153;SDS011;12312;53.362;-1.518;2024-02-26T05:53:19;3.00;;;1.83;;
24153;SDS011;12312;53.362;-1.518;2024-02-26T05:56:03;7.32;;;2.20;;
24153;SDS011;12312;53.362;-1.518;2024-02-26T05:58:47;4.95;;;3.05;;
24153;SDS011;12312;53.362;-1.518;2024-02-26T06:01:31;7.95;;;2.72;;
24153;SDS011;12312;53.362;-1.518;2024-02-26T06:04:16;6.25;;;2.83;;
24153;SDS011;12312;53.362;-1.518;2024-02-26T06:07:01;10.27;;;2.40;;
24153;SDS011;12312;53.362;-1.518;2024-02-26T06:09:45;4.50;;;2.00;;
24153;SDS011;12312;53.362;-1.518;2024-02-26T06:12:29;7.18;;;2.75;;
24153;SDS011;12312;53.362;-1.518;2024-02-26T06:15:14;8.73;;;2.70;;
24153;SDS011;12312;53.362;-1.518;2024-02-26T06:17:58;4.43;;;2.22;;
24153;SDS011;12312;53.362;-1.518;2024-02-26T06:20:43;10.63;;;2.85;;
24153;SDS011;12312;53.362;-1.518;2024-02-26T06:23:27;5.72;;;3.00;;
24153;SDS011;12312;53.362;-1.518;2024-02-26T06:26:11;5.35;;;3.17;;
24153;SDS011;12312;53.362;-1.518;2024-02-26T06:28:55;3.85;;;2.67;;
24153;SDS011;12312;53.362;-1.518;2024-02-26T06:31:39;7.63;;;1.77;;
24153;SDS011;12312;53.362;-1.518;2024-02-26T06:34:23;6.43;;;1.92;;
24153;SDS011;12312;53.362;-1.518;2024-02-26T06:37:07;7.28;;;2.40;;
24153;SDS011;12312;53.362;-1.518;2024-02-26T06:39:51;3.95;;;2.80;;
24153;SDS011;12312;53.362;-1.518;2024-02-26T06:42:35;2.88;;;1.85;;
24153;SDS011;12312;53.362;-1.518;2024-02-26T06:45:19;7.90;;;2.75;;
24153;SDS011;12312;53.362;-1.518;2024-02-26T06:48:04;4.68;;;1.95;;
24153;SDS011;12312;53.362;-1.518;2024-02-26T06:50:48;3.15;;;1.63;;
24153;SDS011;12312;53.362;-1.518;2024-02-26T06:53:32;5.13;;;2.60;;
24153;SDS011;12312;53.362;-1.518;2024-02-26T06:56:16;13.35;;;4.25;;
24153;SDS011;12312;53.362;-1.518;2024-02-26T06:59:01;19.48;;;4.07;;
24153;SDS011;12312;53.362;-1.518;2024-02-26T07:01:45;11.73;;;4.22;;
24153;SDS011;12312;53.362;-1.518;2024-02-26T07:04:29;8.10;;;3.60;;
24153;SDS011;12312;53.362;-1.518;2024-02-26T07:07:15;6.72;;;3.60;;
24153;SDS011;12312;53.362;-1.518;2024-02-26T07:10:01;9.68;;;4.75;;
24153;SDS011;12312;53.362;-1.518;2024-02-26T07:12:47;15.85;;;4.80;;
24153;SDS011;12312;53.362;-1.518;2024-02-26T07:15:31;9.07;;;5.03;;
24153;SDS011;12312;53.362;-1.518;2024-02-26T07:18:16;11.27;;;4.97;;
24153;SDS011;12312;53.362;-1.518;2024-02-26T07:21:01;12.48;;;5.45;;
24153;SDS011;12312;53.362;-1.518;2024-02-26T07:23:46;9.95;;;5.22;;
24153;SDS011;12312;53.362;-1.518;2024-02-26T07:26:30;12.57;;;4.43;;
24153;SDS011;12312;53.362;-1.518;2024-02-26T07:29:14;10.70;;;4.68;;
24153;SDS011;12312;53.362;-1.518;2024-02-26T07:31:58;9.38;;;4.30;;
24153;SDS011;12312;53.362;-1.518;2024-02-26T07:34:42;14.32;;;5.05;;
24153;SDS011;12312;53.362;-1.518;2024-02-26T07:37:28;18.52;;;3.60;;
24153;SDS011;12312;53.362;-1.518;2024-02-26T07:40:12;12.55;;;4.40;;
24153;SDS011;12312;53.362;-1.518;2024-02-26T07:42:56;19.27;;;4.65;;
24153;SDS011;12312;53.362;-1.518;2024-02-26T07:45:40;20.02;;;4.28;;
24153;SDS011;12312;53.362;-1.518;2024-02-26T07:48:24;6.20;;;3.08;;
24153;SDS011;12312;53.362;-1.518;2024-02-26T07:51:08;4.93;;;2.72;;
24153;SDS011;12312;53.362;-1.518;2024-02-26T07:53:52;6.93;;;2.33;;
24153;SDS011;12312;53.362;-1.518;2024-02-26T07:56:36;11.20;;;2.92;;
24153;SDS011;12312;53.362;-1.518;2024-02-26T07:59:20;11.55;;;2.90;;
24153;SDS011;12312;53.362;-1.518;2024-02-26T08:02:04;9.80;;;3.28;;
24153;SDS011;12312;53.362;-1.518;2024-02-26T08:04:49;8.18;;;2.88;;
24153;SDS011;12312;53.362;-1.518;2024-02-26T08:07:34;5.78;;;2.67;;
24153;SDS011;12312;53.362;-1.518;2024-02-26T08:10:17;8.38;;;2.67;;
24153;SDS011;12312;53.362;-1.518;2024-02-26T08:13:01;8.50;;;2.97;;
24153;SDS011;12312;53.362;-1.518;2024-02-26T08:15:48;11.95;;;4.50;;
24153;SDS011;12312;53.362;-1.518;2024-02-26T08:18:32;10.90;;;3.10;;
24153;SDS011;12312;53.362;-1.518;2024-02-26T08:21:16;8.80;;;3.25;;
24153;SDS011;12312;53.362;-1.518;2024-02-26T08:24:00;4.75;;;2.35;;
24153;SDS011;12312;53.362;-1.518;2024-02-26T08:26:44;12.60;;;3.40;;
24153;SDS011;12312;53.362;-1.518;2024-02-26T08:29:30;9.10;;;2.80;;
24153;SDS011;12312;53.362;-1.518;2024-02-26T08:32:14;3.17;;;2.20;;
24153;SDS011;12312;53.362;-1.518;2024-02-26T08:34:58;11.45;;;2.53;;
24153;SDS011;12312;53.362;-1.518;2024-02-26T08:37:45;4.05;;;1.92;;
24153;SDS011;12312;53.362;-1.518;2024-02-26T08:40:29;5.80;;;2.38;;
24153;SDS011;12312;53.362;-1.518;2024-02-26T08:43:13;9.98;;;3.58;;
24153;SDS011;12312;53.362;-1.518;2024-02-26T08:45:57;4.55;;;2.50;;
24153;SDS011;12312;53.362;-1.518;2024-02-26T08:48:41;9.10;;;2.40;;
24153;SDS011;12312;53.362;-1.518;2024-02-26T08:51:25;7.03;;;2.03;;
24153;SDS011;12312;53.362;-1.518;2024-02-26T08:54:09;14.05;;;3.10;;
24153;SDS011;12312;53.362;-1.518;2024-02-26T08:56:53;13.35;;;3.72;;
24153;SDS011;12312;53.362;-1.518;2024-02-26T08:59:37;8.23;;;2.85;;
24153;SDS011;12312;53.362;-1.518;2024-02-26T09:02:21;4.18;;;1.77;;
24153;SDS011;12312;53.362;-1.518;2024-02-26T09:05:05;4.78;;;1.83;;
24153;SDS011;12312;53.362;-1.518;2024-02-26T09:07:49;9.57;;;2.20;;
24153;SDS011;12312;53.362;-1.518;2024-02-26T09:10:35;4.13;;;1.80;;
24153;SDS011;12312;53.362;-1.518;2024-02-26T09:13:19;9.65;;;2.13;;
24153;SDS011;12312;53.362;-1.518;2024-02-26T09:16:03;7.65;;;2.00;;
24153;SDS011;12312;53.362;-1.518;2024-02-26T09:18:48;6.25;;;1.90;;
24153;SDS011;12312;53.362;-1.518;2024-02-26T09:21:32;2.20;;;1.38;;
24153;SDS011;12312;53.362;-1.518;2024-02-26T09:24:17;2.25;;;1.52;;
24153;SDS011;12312;53.362;-1.518;2024-02-26T09:27:01;4.50;;;1.20;;
24153;SDS011;12312;53.362;-1.518;2024-02-26T09:29:45;6.95;;;2.22;;
24153;SDS011;12312;53.362;-1.518;2024-02-26T09:32:30;4.30;;;0.93;;
24153;SDS011;12312;53.362;-1.518;2024-02-26T09:35:14;4.85;;;1.63;;
24153;SDS011;12312;53.362;-1.518;2024-02-26T09:37:58;7.40;;;1.70;;
24153;SDS011;12312;53.362;-1.518;2024-02-26T09:40:42;5.72;;;1.60;;
24153;SDS011;12312;53.362;-1.518;2024-02-26T09:43:26;3.20;;;1.05;;
24153;SDS011;12312;53.362;-1.518;2024-02-26T09:46:16;2.28;;;1.67;;
24153;SDS011;12312;53.362;-1.518;2024-02-26T09:49:04;2.22;;;1.45;;
24153;SDS011;12312;53.362;-1.518;2024-02-26T09:51:49;3.53;;;1.35;;
24153;SDS011;12312;53.362;-1.518;2024-02-26T09:57:19;1.40;;;1.30;;
24153;SDS011;12312;53.362;-1.518;2024-02-26T10:00:08;5.10;;;1.27;;
24153;SDS011;12312;53.362;-1.518;2024-02-26T10:02:56;1.80;;;1.00;;
24153;SDS011;12312;53.362;-1.518;2024-02-26T10:05:43;1.60;;;0.90;;
24153;SDS011;12312;53.362;-1.518;2024-02-26T10:08:28;2.83;;;0.98;;
24153;SDS011;12312;53.362;-1.518;2024-02-26T10:11:14;2.13;;;0.98;;
24153;SDS011;12312;53.362;-1.518;2024-02-26T10:13:58;5.15;;;1.48;;
24153;SDS011;12312;53.362;-1.518;2024-02-26T10:16:42;1.38;;;0.95;;
24153;SDS011;12312;53.362;-1.518;2024-02-26T10:19:27;3.88;;;0.90;;
24153;SDS011;12312;53.362;-1.518;2024-02-26T10:22:13;3.63;;;1.13;;
24153;SDS011;12312;53.362;-1.518;2024-02-26T10:24:56;0.70;;;0.70;;
24153;SDS011;12312;53.362;-1.518;2024-02-26T10:27:41;2.35;;;1.00;;
24153;SDS011;12312;53.362;-1.518;2024-02-26T10:30:28;2.78;;;0.95;;
24153;SDS011;12312;53.362;-1.518;2024-02-26T10:33:14;3.95;;;1.08;;
24153;SDS011;12312;53.362;-1.518;2024-02-26T10:35:58;1.08;;;0.77;;
24153;SDS011;12312;53.362;-1.518;2024-02-26T10:38:42;1.05;;;0.55;;
24153;SDS011;12312;53.362;-1.518;2024-02-26T10:41:26;2.28;;;0.70;;
24153;SDS011;12312;53.362;-1.518;2024-02-26T10:44:11;4.50;;;1.70;;
24153;SDS011;12312;53.362;-1.518;2024-02-26T10:46:56;3.17;;;1.00;;
24153;SDS011;12312;53.362;-1.518;2024-02-26T10:49:44;1.67;;;0.75;;
24153;SDS011;12312;53.362;-1.518;2024-02-26T10:52:31;2.85;;;1.10;;
24153;SDS011;12312;53.362;-1.518;2024-02-26T11:00:48;1.13;;;0.80;;
24153;SDS011;12312;53.362;-1.518;2024-02-26T11:03:34;1.55;;;1.30;;
24153;SDS011;12312;53.362;-1.518;2024-02-26T11:06:20;7.63;;;1.55;;
24153;SDS011;12312;53.362;-1.518;2024-02-26T11:09:05;3.08;;;0.80;;
24153;SDS011;12312;53.362;-1.518;2024-02-26T11:11:52;1.65;;;0.90;;
24153;SDS011;12312;53.362;-1.518;2024-02-26T11:17:28;1.73;;;1.20;;
24153;SDS011;12312;53.362;-1.518;2024-02-26T11:20:15;1.02;;;0.70;;
24153;SDS011;12312;53.362;-1.518;2024-02-26T11:23:03;3.88;;;1.30;;
24153;SDS011;12312;53.362;-1.518;2024-02-26T11:25:48;2.47;;;0.73;;
24153;SDS011;12312;53.362;-1.518;2024-02-26T11:28:34;3.97;;;0.82;;
24153;SDS011;12312;53.362;-1.518;2024-02-26T11:31:19;6.68;;;1.42;;
24153;SDS011;12312;53.362;-1.518;2024-02-26T11:34:10;5.40;;;0.98;;
24153;SDS011;12312;53.362;-1.518;2024-02-26T11:36:54;2.33;;;0.88;;
24153;SDS011;12312;53.362;-1.518;2024-02-26T11:39:40;2.08;;;0.95;;
24153;SDS011;12312;53.362;-1.518;2024-02-26T11:42:25;1.65;;;0.80;;
24153;SDS011;12312;53.362;-1.518;2024-02-26T11:45:47;5.63;;;0.98;;
24153;SDS011;12312;53.362;-1.518;2024-02-26T11:48:32;3.22;;;0.90;;
24153;SDS011;12312;53.362;-1.518;2024-02-26T11:51:17;1.25;;;1.00;;
24153;SDS011;12312;53.362;-1.518;2024-02-26T11:54:01;1.83;;;0.90;;
24153;SDS011;12312;53.362;-1.518;2024-02-26T11:56:45;1.92;;;0.80;;
24153;SDS011;12312;53.362;-1.518;2024-02-26T11:59:39;2.28;;;1.00;;
24153;SDS011;12312;53.362;-1.518;2024-02-26T12:05:27;0.82;;;0.60;;
24153;SDS011;12312;53.362;-1.518;2024-02-26T12:08:15;0.75;;;0.75;;
24153;SDS011;12312;53.362;-1.518;2024-02-26T12:11:01;2.95;;;1.25;;
24153;SDS011;12312;53.362;-1.518;2024-02-26T12:13:47;1.45;;;0.90;;
24153;SDS011;12312;53.362;-1.518;2024-02-26T12:19:21;2.90;;;1.15;;
24153;SDS011;12312;53.362;-1.518;2024-02-26T12:22:06;2.47;;;0.85;;
24153;SDS011;12312;53.362;-1.518;2024-02-26T12:24:59;5.45;;;0.80;;
24153;SDS011;12312;53.362;-1.518;2024-02-26T12:27:45;0.80;;;0.80;;
24153;SDS011;12312;53.362;-1.518;2024-02-26T12:30:28;2.53;;;0.70;;
24153;SDS011;12312;53.362;-1.518;2024-02-26T12:33:14;7.28;;;0.93;;
24153;SDS011;12312;53.362;-1.518;2024-02-26T12:35:58;1.95;;;0.90;;
24153;SDS011;12312;53.362;-1.518;2024-02-26T12:38:42;0.88;;;0.50;;
24153;SDS011;12312;53.362;-1.518;2024-02-26T12:41:27;3.40;;;0.73;;
24153;SDS011;12312;53.362;-1.518;2024-02-26T12:44:12;0.63;;;0.60;;
24153;SDS011;12312;53.362;-1.518;2024-02-26T12:47:04;5.05;;;1.05;;
24153;SDS011;12312;53.362;-1.518;2024-02-26T12:49:48;1.63;;;0.90;;
24153;SDS011;12312;53.362;-1.518;2024-02-26T12:52:37;1.60;;;1.25;;
24153;SDS011;12312;53.362;-1.518;2024-02-26T12:55:23;1.90;;;0.55;;
24153;SDS011;12312;53.362;-1.518;2024-02-26T12:58:07;1.15;;;0.50;;
24153;SDS011;12312;53.362;-1.518;2024-02-26T13:00:51;1.33;;;0.98;;
24153;SDS011;12312;53.362;-1.518;2024-02-26T13:03:36;0.50;;;0.50;;
24153;SDS011;12312;53.362;-1.518;2024-02-26T13:06:21;1.45;;;1.02;;
24153;SDS011;12312;53.362;-1.518;2024-02-26T13:09:06;5.15;;;0.80;;
24153;SDS011;12312;53.362;-1.518;2024-02-26T13:11:56;3.83;;;0.60;;
24153;SDS011;12312;53.362;-1.518;2024-02-26T13:14:40;1.80;;;0.88;;
24153;SDS011;12312;53.362;-1.518;2024-02-26T13:17:24;0.55;;;0.55;;
24153;SDS011;12312;53.362;-1.518;2024-02-26T13:20:11;1.35;;;1.05;;
24153;SDS011;12312;53.362;-1.518;2024-02-26T13:23:03;1.10;;;0.40;;
24153;SDS011;12312;53.362;-1.518;2024-02-26T13:25:48;1.77;;;0.90;;
24153;SDS011;12312;53.362;-1.518;2024-02-26T13:28:39;0.68;;;0.40;;
24153;SDS011;12312;53.362;-1.518;2024-02-26T13:31:24;0.75;;;0.55;;
24153;SDS011;12312;53.362;-1.518;2024-02-26T13:34:08;2.58;;;0.60;;
24153;SDS011;12312;53.362;-1.518;2024-02-26T13:36:53;0.40;;;0.40;;
24153;SDS011;12312;53.362;-1.518;2024-02-26T13:39:37;1.83;;;0.70;;
24153;SDS011;12312;53.362;-1.518;2024-02-26T13:42:21;2.47;;;0.70;;
24153;SDS011;12312;53.362;-1.518;2024-02-26T13:45:06;5.25;;;0.60;;
24153;SDS011;12312;53.362;-1.518;2024-02-26T13:47:50;0.65;;;0.60;;
24153;SDS011;12312;53.362;-1.518;2024-02-26T13:50:35;1.17;;;0.75;;
24153;SDS011;12312;53.362;-1.518;2024-02-26T13:53:19;1.10;;;0.75;;
24153;SDS011;12312;53.362;-1.518;2024-02-26T13:56:05;0.63;;;0.60;;
24153;SDS011;12312;53.362;-1.518;2024-02-26T14:01:33;0.50;;;0.50;;
24153;SDS011;12312;53.362;-1.518;2024-02-26T14:04:17;1.55;;;0.73;;
24153;SDS011;12312;53.362;-1.518;2024-02-26T14:07:01;0.63;;;0.63;;
24153;SDS011;12312;53.362;-1.518;2024-02-26T14:09:46;0.40;;;0.40;;
24153;SDS011;12312;53.362;-1.518;2024-02-26T14:12:30;4.85;;;0.68;;
24153;SDS011;12312;53.362;-1.518;2024-02-26T14:15:14;0.70;;;0.47;;
24153;SDS011;12312;53.362;-1.518;2024-02-26T14:17:58;0.55;;;0.55;;
24153;SDS011;12312;53.362;-1.518;2024-02-26T14:20:43;2.85;;;0.90;;
24153;SDS011;12312;53.362;-1.518;2024-02-26T14:23:28;0.95;;;0.82;;
24153;SDS011;12312;53.362;-1.518;2024-02-26T14:26:12;2.17;;;0.50;;
24153;SDS011;12312;53.362;-1.518;2024-02-26T14:28:56;1.85;;;0.60;;
24153;SDS011;12312;53.362;-1.518;2024-02-26T14:31:40;7.65;;;0.82;;
24153;SDS011;12312;53.362;-1.518;2024-02-26T14:34:23;0.98;;;0.57;;
24153;SDS011;12312;53.362;-1.518;2024-02-26T14:37:07;2.05;;;0.68;;
24153;SDS011;12312;53.362;-1.518;2024-02-26T14:39:51;3.55;;;0.60;;
24153;SDS011;12312;53.362;-1.518;2024-02-26T14:42:36;1.48;;;0.70;;
24153;SDS011;12312;53.362;-1.518;2024-02-26T14:45:20;2.22;;;0.82;;
24153;SDS011;12312;53.362;-1.518;2024-02-26T14:48:04;2.35;;;0.77;;
24153;SDS011;12312;53.362;-1.518;2024-02-26T14:50:49;1.48;;;0.70;;
24153;SDS011;12312;53.362;-1.518;2024-02-26T14:53:34;1.10;;;0.88;;
24153;SDS011;12312;53.362;-1.518;2024-02-26T14:56:18;0.93;;;0.70;;
24153;SDS011;12312;53.362;-1.518;2024-02-26T14:59:03;0.60;;;0.60;;
24153;SDS011;12312;53.362;-1.518;2024-02-26T15:01:47;0.50;;;0.50;;
24153;SDS011;12312;53.362;-1.518;2024-02-26T15:04:31;2.78;;;0.80;;
24153;SDS011;12312;53.362;-1.518;2024-02-26T15:07:15;1.52;;;0.93;;
24153;SDS011;12312;53.362;-1.518;2024-02-26T15:09:59;2.20;;;1.20;;
24153;SDS011;12312;53.362;-1.518;2024-02-26T15:12:44;1.98;;;1.05;;
24153;SDS011;12312;53.362;-1.518;2024-02-26T15:15:28;2.15;;;0.73;;
24153;SDS011;12312;53.362;-1.518;2024-02-26T15:18:12;1.45;;;0.70;;
24153;SDS011;12312;53.362;-1.518;2024-02-26T15:20:59;1.95;;;0.88;;
24153;SDS011;12312;53.362;-1.518;2024-02-26T15:23:43;0.77;;;0.55;;
24153;SDS011;12312;53.362;-1.518;2024-02-26T15:26:30;0.88;;;0.50;;
24153;SDS011;12312;53.362;-1.518;2024-02-26T15:29:14;3.75;;;0.55;;
24153;SDS011;12312;53.362;-1.518;2024-02-26T15:31:58;2.97;;;0.93;;
24153;SDS011;12312;53.362;-1.518;2024-02-26T15:34:42;0.93;;;0.75;;
24153;SDS011;12312;53.362;-1.518;2024-02-26T15:37:25;2.10;;;0.98;;
24153;SDS011;12312;53.362;-1.518;2024-02-26T15:40:09;1.08;;;0.80;;
24153;SDS011;12312;53.362;-1.518;2024-02-26T15:42:54;1.05;;;0.77;;
24153;SDS011;12312;53.362;-1.518;2024-02-26T15:45:38;4.38;;;1.40;;
24153;SDS011;12312;53.362;-1.518;2024-02-26T15:48:22;0.95;;;0.88;;
24153;SDS011;12312;53.362;-1.518;2024-02-26T15:51:06;1.80;;;0.90;;
24153;SDS011;12312;53.362;-1.518;2024-02-26T15:53:50;0.70;;;0.60;;
24153;SDS011;12312;53.362;-1.518;2024-02-26T15:56:34;4.50;;;0.77;;
24153;SDS011;12312;53.362;-1.518;2024-02-26T15:59:19;1.17;;;0.85;;
24153;SDS011;12312;53.362;-1.518;2024-02-26T16:02:04;1.60;;;0.77;;
24153;SDS011;12312;53.362;-1.518;2024-02-26T16:04:48;4.10;;;0.75;;
24153;SDS011;12312;53.362;-1.518;2024-02-26T16:10:43;0.70;;;0.70;;
24153;SDS011;12312;53.362;-1.518;2024-02-26T16:13:27;1.50;;;0.65;;
24153;SDS011;12312;53.362;-1.518;2024-02-26T16:16:16;3.42;;;0.95;;
24153;SDS011;12312;53.362;-1.518;2024-02-26T16:19:09;2.28;;;1.10;;
24153;SDS011;12312;53.362;-1.518;2024-02-26T16:21:56;0.85;;;0.63;;
24153;SDS011;12312;53.362;-1.518;2024-02-26T16:24:40;1.13;;;0.60;;
24153;SDS011;12312;53.362;-1.518;2024-02-26T16:27:24;2.80;;;0.93;;
24153;SDS011;12312;53.362;-1.518;2024-02-26T16:30:09;2.70;;;0.90;;
24153;SDS011;12312;53.362;-1.518;2024-02-26T16:32:53;2.95;;;0.65;;
24153;SDS011;12312;53.362;-1.518;2024-02-26T16:35:37;2.38;;;0.82;;
24153;SDS011;12312;53.362;-1.518;2024-02-26T16:38:21;2.30;;;0.82;;
24153;SDS011;12312;53.362;-1.518;2024-02-26T16:41:05;1.63;;;0.70;;
24153;SDS011;12312;53.362;-1.518;2024-02-26T16:43:49;1.50;;;0.65;;